createdAt,value
2023-03-16T00:00:15.125Z,-1.74
2023-03-16T00:01:14.126Z,-1.87
2023-03-16T00:02:14.180Z,-1.82
2023-03-16T00:03:14.144Z,-1.89
2023-03-16T00:04:14.212Z,-1.90
2023-03-16T00:05:14.095Z,-1.92
2023-03-16T00:06:14.100Z,-1.98
2023-03-16T00:07:14.092Z,-2.05
2023-03-16T00:08:14.068Z,-1.98
2023-03-16T00:09:14.075Z,-1.98
2023-03-16T00:10:14.069Z,-2.02
2023-03-16T00:11:14.054Z,-2.02
2023-03-16T00:12:14.054Z,-1.92
2023-03-16T00:13:14.035Z,-2.00
2023-03-16T00:14:14.043Z,-2.05
2023-03-16T00:15:14.030Z,-2.00
2023-03-16T00:16:14.027Z,-2.12
2023-03-16T00:17:14.014Z,-2.04
2023-03-16T00:18:13.997Z,-2.07
2023-03-16T00:19:14.004Z,-2.13
2023-03-16T00:20:14.004Z,-2.10
2023-03-16T00:21:13.985Z,-2.02
2023-03-16T00:22:14.722Z,-2.02
2023-03-16T00:24:13.875Z,-1.97
2023-03-16T00:25:13.873Z,-2.01
2023-03-16T00:26:13.877Z,-2.00
2023-03-16T00:27:14.991Z,-2.07
2023-03-16T00:28:15.741Z,-2.05
2023-03-16T00:29:14.949Z,-2.02
2023-03-16T00:30:14.933Z,-2.08
2023-03-16T00:31:15.131Z,-2.07
2023-03-16T00:32:14.940Z,-2.02
2023-03-16T00:33:14.902Z,-2.01
2023-03-16T00:34:14.901Z,-2.12
2023-03-16T00:35:14.883Z,-2.01
2023-03-16T00:36:14.890Z,-2.07
2023-03-16T00:37:14.893Z,-1.97
2023-03-16T00:38:14.869Z,-1.97
2023-03-16T00:39:14.878Z,-2.10
2023-03-16T00:40:14.893Z,-2.04
2023-03-16T00:41:14.861Z,-2.10
2023-03-16T00:42:14.851Z,-2.02
2023-03-16T00:43:14.827Z,-2.02
2023-03-16T00:44:15.808Z,-2.02
2023-03-16T00:45:14.842Z,-1.97
2023-03-16T00:46:14.874Z,-1.97
2023-03-16T00:47:14.901Z,-1.94
2023-03-16T00:48:14.792Z,-2.07
2023-03-16T00:49:14.788Z,-2.00
2023-03-16T00:50:14.771Z,-2.00
2023-03-16T00:51:14.912Z,-1.89
2023-03-16T00:52:15.015Z,-1.92
2023-03-16T00:53:14.784Z,-1.89
2023-03-16T00:54:14.790Z,-1.87
2023-03-16T00:55:14.786Z,-1.90
2023-03-16T00:56:14.781Z,-1.87
2023-03-16T00:57:14.713Z,-1.83
2023-03-16T00:58:15.314Z,-1.87
2023-03-16T00:59:14.710Z,-1.87
2023-03-16T01:00:14.705Z,-2.01
2023-03-16T01:01:14.897Z,-1.90
2023-03-16T01:02:14.679Z,-1.90
2023-03-16T01:03:14.706Z,-1.98
2023-03-16T01:04:14.681Z,-2.10
2023-03-16T01:05:14.674Z,-2.02
2023-03-16T01:06:14.671Z,-2.00
2023-03-16T01:07:14.657Z,-2.10
2023-03-16T01:08:14.628Z,-2.07
2023-03-16T01:09:14.631Z,-2.10
2023-03-16T01:10:14.624Z,-2.13
2023-03-16T01:11:14.619Z,-2.08
2023-03-16T01:12:14.627Z,-2.05
2023-03-16T01:13:14.613Z,-2.10
2023-03-16T01:14:14.593Z,-2.07
2023-03-16T01:15:14.596Z,-2.12
2023-03-16T01:16:14.644Z,-2.12
2023-03-16T01:17:14.617Z,-2.15
2023-03-16T01:18:14.565Z,-2.15
2023-03-16T01:19:14.596Z,-2.13
2023-03-16T01:20:14.550Z,-2.22
2023-03-16T01:21:14.538Z,-2.23
2023-03-16T01:22:14.548Z,-2.28
2023-03-16T01:23:14.517Z,-2.28
2023-03-16T01:24:14.532Z,-2.28
2023-03-16T01:25:14.509Z,-2.38
2023-03-16T01:26:14.508Z,-2.10
2023-03-16T01:27:14.492Z,-2.35
2023-03-16T01:28:14.494Z,-2.28
2023-03-16T01:29:14.477Z,-2.22
2023-03-16T01:30:14.463Z,-2.26
2023-03-16T01:31:14.564Z,-2.30
2023-03-16T01:32:14.447Z,-2.22
2023-03-16T01:33:14.451Z,-2.25
2023-03-16T01:34:14.434Z,-2.21
2023-03-16T01:35:14.445Z,-2.23
2023-03-16T01:36:14.432Z,-2.25
2023-03-16T01:37:15.322Z,-2.22
2023-03-16T01:38:14.413Z,-2.26
2023-03-16T01:39:14.408Z,-2.28
2023-03-16T01:40:14.398Z,-2.28
2023-03-16T01:41:14.373Z,-2.35
2023-03-16T01:42:14.381Z,-2.38
2023-03-16T01:43:14.369Z,-2.34
2023-03-16T01:44:14.357Z,-2.35
2023-03-16T01:45:14.356Z,-2.38
2023-03-16T01:46:14.393Z,-2.41
2023-03-16T01:47:14.364Z,-2.45
2023-03-16T01:48:14.347Z,-2.38
2023-03-16T01:49:14.320Z,-2.47
2023-03-16T01:50:14.318Z,-2.30
2023-03-16T01:51:14.301Z,-2.35
2023-03-16T01:52:14.308Z,-2.35
2023-03-16T01:53:14.295Z,-2.37
2023-03-16T01:54:14.280Z,-2.32
2023-03-16T01:55:14.292Z,-2.19
2023-03-16T01:56:14.249Z,-2.23
2023-03-16T01:57:15.273Z,-2.21
2023-03-16T01:58:14.248Z,-2.15
2023-03-16T01:59:14.253Z,-2.13
2023-03-16T02:00:14.238Z,-2.10
2023-03-16T02:01:14.301Z,-2.10
2023-03-16T02:02:14.227Z,-2.04
2023-03-16T02:03:14.221Z,-2.01
2023-03-16T02:04:14.220Z,-2.00
2023-03-16T02:05:14.195Z,-2.05
2023-03-16T02:06:14.189Z,-1.97
2023-03-16T02:07:14.187Z,-2.08
2023-03-16T02:08:14.160Z,-2.04
2023-03-16T02:09:14.166Z,-2.04
2023-03-16T02:10:14.147Z,-1.97
2023-03-16T02:11:14.145Z,-2.05
2023-03-16T02:12:14.138Z,-1.97
2023-03-16T02:13:14.131Z,-1.94
2023-03-16T02:14:14.143Z,-1.89
2023-03-16T02:15:14.163Z,-1.86
2023-03-16T02:16:14.167Z,-1.94
2023-03-16T02:17:14.092Z,-1.89
2023-03-16T02:18:15.099Z,-1.89
2023-03-16T02:19:14.079Z,-1.89
2023-03-16T02:20:14.090Z,-1.87
2023-03-16T02:21:14.068Z,-1.94
2023-03-16T02:22:14.076Z,-1.92
2023-03-16T02:23:14.053Z,-1.89
2023-03-16T02:24:14.072Z,-1.90
2023-03-16T02:25:14.059Z,-1.90
2023-03-16T02:26:14.064Z,-1.94
2023-03-16T02:27:14.020Z,-1.94
2023-03-16T02:28:14.024Z,-1.89
2023-03-16T02:29:14.008Z,-1.94
2023-03-16T02:30:13.995Z,-1.87
2023-03-16T02:31:14.366Z,-1.89
2023-03-16T02:32:13.986Z,-1.92
2023-03-16T02:33:13.984Z,-2.01
2023-03-16T02:34:13.975Z,-1.89
2023-03-16T02:35:13.962Z,-1.87
2023-03-16T02:36:13.954Z,-1.86
2023-03-16T02:37:13.931Z,-1.90
2023-03-16T02:38:13.941Z,-1.84
2023-03-16T02:39:13.956Z,-1.77
2023-03-16T02:40:13.936Z,-1.82
2023-03-16T02:41:13.915Z,-1.92
2023-03-16T02:42:13.918Z,-1.86
2023-03-16T02:43:13.892Z,-1.94
2023-03-16T02:44:13.897Z,-1.89
2023-03-16T02:45:13.881Z,-1.86
2023-03-16T02:46:13.937Z,-1.87
2023-03-16T02:47:13.879Z,-1.84
2023-03-16T02:48:13.865Z,-1.90
2023-03-16T02:49:13.852Z,-1.83
2023-03-16T02:50:13.849Z,-1.76
2023-03-16T02:51:13.842Z,-1.89
2023-03-16T02:52:13.827Z,-1.87
2023-03-16T02:53:13.829Z,-1.76
2023-03-16T02:54:13.813Z,-1.86
2023-03-16T02:55:13.822Z,-1.86
2023-03-16T02:56:13.809Z,-1.86
2023-03-16T02:57:13.805Z,-1.79
2023-03-16T02:58:13.783Z,-1.84
2023-03-16T02:59:13.794Z,-2.00
2023-03-16T03:00:13.766Z,-1.92
2023-03-16T03:01:13.778Z,-1.92
2023-03-16T03:02:13.752Z,-1.87
2023-03-16T03:03:13.765Z,-2.00
2023-03-16T03:04:13.747Z,-1.98
2023-03-16T03:05:13.721Z,-2.02
2023-03-16T03:06:13.730Z,-2.08
2023-03-16T03:07:13.718Z,-1.98
2023-03-16T03:08:14.329Z,-2.07
2023-03-16T03:09:13.701Z,-2.10
2023-03-16T03:10:13.701Z,-2.07
2023-03-16T03:11:13.698Z,-2.15
2023-03-16T03:12:13.678Z,-2.21
2023-03-16T03:13:13.670Z,-2.26
2023-03-16T03:14:13.658Z,-2.25
2023-03-16T03:15:13.655Z,-2.16
2023-03-16T03:16:13.745Z,-2.23
2023-03-16T03:17:13.641Z,-2.26
2023-03-16T03:18:13.627Z,-2.21
2023-03-16T03:19:13.651Z,-2.19
2023-03-16T03:20:13.620Z,-2.15
2023-03-16T03:21:13.625Z,-2.16
2023-03-16T03:22:13.597Z,-2.22
2023-03-16T03:23:13.587Z,-2.18
2023-03-16T03:24:13.588Z,-2.23
2023-03-16T03:25:13.578Z,-2.12
2023-03-16T03:26:13.562Z,-2.21
2023-03-16T03:27:13.554Z,-2.05
2023-03-16T03:28:13.548Z,-2.18
2023-03-16T03:29:13.545Z,-2.10
2023-03-16T03:30:13.556Z,-2.16
2023-03-16T03:31:13.532Z,-2.12
2023-03-16T03:32:13.519Z,-2.12
2023-03-16T03:33:13.503Z,-2.18
2023-03-16T03:34:13.499Z,-2.18
2023-03-16T03:35:13.479Z,-2.13
2023-03-16T03:36:13.489Z,-2.07
2023-03-16T03:37:13.486Z,-2.12
2023-03-16T03:38:13.469Z,-2.13
2023-03-16T03:39:14.264Z,-2.02
2023-03-16T03:40:13.449Z,-1.97
2023-03-16T03:41:13.472Z,-1.92
2023-03-16T03:42:13.448Z,-1.90
2023-03-16T03:43:13.431Z,-1.82
2023-03-16T03:44:13.429Z,-1.79
2023-03-16T03:45:14.297Z,-1.68
2023-03-16T03:46:13.667Z,-1.69
2023-03-16T03:47:13.470Z,-1.64
2023-03-16T03:48:13.397Z,-1.64
2023-03-16T03:49:13.390Z,-1.68
2023-03-16T03:50:13.371Z,-1.71
2023-03-16T03:51:13.375Z,-1.50
2023-03-16T03:52:13.353Z,-1.66
2023-03-16T03:53:13.360Z,-1.62
2023-03-16T03:54:13.361Z,-1.48
2023-03-16T03:55:13.334Z,-1.53
2023-03-16T03:56:13.327Z,-1.51
2023-03-16T03:57:13.351Z,-1.50
2023-03-16T03:58:13.316Z,-1.56
2023-03-16T03:59:13.296Z,-1.59
2023-03-16T04:00:13.307Z,-1.59
2023-03-16T04:01:13.292Z,-1.69
2023-03-16T04:02:13.386Z,-1.65
2023-03-16T04:03:13.424Z,-1.76
2023-03-16T04:04:13.271Z,-1.83
2023-03-16T04:05:13.262Z,-1.76
2023-03-16T04:06:13.267Z,-1.92
2023-03-16T04:07:13.246Z,-1.94
2023-03-16T04:08:13.227Z,-1.87
2023-03-16T04:09:13.216Z,-1.95
2023-03-16T04:10:13.214Z,-1.97
2023-03-16T04:11:13.214Z,-1.97
2023-03-16T04:12:13.244Z,-2.00
2023-03-16T04:13:13.196Z,-2.02
2023-03-16T04:14:13.205Z,-1.94
2023-03-16T04:16:20.087Z,-1.92
2023-03-16T04:17:20.871Z,-1.89
2023-03-16T04:18:21.117Z,-1.87
2023-03-16T04:19:21.123Z,-1.90
2023-03-16T04:20:21.103Z,-1.89
2023-03-16T04:21:21.079Z,-1.79
2023-03-16T04:22:21.063Z,-1.87
2023-03-16T04:23:21.072Z,-1.72
2023-03-16T04:24:21.053Z,-1.80
2023-03-16T04:25:21.054Z,-1.79
2023-03-16T04:26:21.043Z,-1.77
2023-03-16T04:27:21.054Z,-1.76
2023-03-16T04:28:21.027Z,-1.72
2023-03-16T04:29:21.024Z,-1.79
2023-03-16T04:30:21.024Z,-1.83
2023-03-16T04:31:21.015Z,-1.77
2023-03-16T04:32:20.980Z,-1.83
2023-03-16T04:33:21.987Z,-1.77
2023-03-16T04:34:20.988Z,-1.94
2023-03-16T04:35:20.970Z,-1.71
2023-03-16T04:36:20.961Z,-1.82
2023-03-16T04:37:20.952Z,-1.72
2023-03-16T04:38:20.959Z,-1.82
2023-03-16T04:39:20.967Z,-1.74
2023-03-16T04:40:20.936Z,-1.82
2023-03-16T04:41:20.943Z,-1.80
2023-03-16T04:42:20.915Z,-1.86
2023-03-16T04:43:20.913Z,-1.89
2023-03-16T04:44:20.901Z,-1.86
2023-03-16T04:45:20.901Z,-2.00
2023-03-16T04:46:20.967Z,-1.86
2023-03-16T04:47:20.890Z,-1.86
2023-03-16T04:48:20.875Z,-1.98
2023-03-16T04:49:20.875Z,-1.98
2023-03-16T04:50:20.857Z,-1.84
2023-03-16T04:51:21.571Z,-1.89
2023-03-16T04:52:20.853Z,-1.82
2023-03-16T04:53:20.831Z,-1.89
2023-03-16T04:54:20.847Z,-1.87
2023-03-16T04:55:20.809Z,-1.86
2023-03-16T04:56:20.815Z,-1.82
2023-03-16T04:57:20.802Z,-1.94
2023-03-16T04:58:20.792Z,-1.94
2023-03-16T04:59:20.794Z,-1.94
2023-03-16T05:00:20.773Z,-1.89
2023-03-16T05:01:20.800Z,-1.76
2023-03-16T05:02:20.758Z,-1.79
2023-03-16T05:03:20.758Z,-1.74
2023-03-16T05:04:20.762Z,-1.74
2023-03-16T05:05:20.784Z,-1.77
2023-03-16T05:06:20.725Z,-1.79
2023-03-16T05:07:20.733Z,-1.72
2023-03-16T05:08:20.720Z,-1.77
2023-03-16T05:09:20.729Z,-1.71
2023-03-16T05:10:20.694Z,-1.69
2023-03-16T05:11:20.692Z,-1.72
2023-03-16T05:12:20.684Z,-1.77
2023-03-16T05:13:20.670Z,-1.80
2023-03-16T05:14:20.676Z,-1.84
2023-03-16T05:15:20.675Z,-1.86
2023-03-16T05:16:20.715Z,-1.90
2023-03-16T05:17:20.657Z,-1.87
2023-03-16T05:18:20.640Z,-1.82
2023-03-16T05:19:20.716Z,-1.87
2023-03-16T05:20:20.634Z,-1.86
2023-03-16T05:21:20.639Z,-1.82
2023-03-16T05:22:20.600Z,-1.90
2023-03-16T05:23:20.602Z,-1.82
2023-03-16T05:24:20.614Z,-1.82
2023-03-16T05:25:20.596Z,-1.83
2023-03-16T05:26:20.576Z,-1.86
2023-03-16T05:27:20.565Z,-1.86
2023-03-16T05:28:20.557Z,-1.97
2023-03-16T05:29:20.542Z,-1.87
2023-03-16T05:30:20.543Z,-1.89
2023-03-16T05:31:20.577Z,-1.95
2023-03-16T05:32:21.473Z,-1.90
2023-03-16T05:33:20.530Z,-1.94
2023-03-16T05:34:20.506Z,-1.94
2023-03-16T05:35:22.061Z,-1.92
2023-03-16T05:36:20.508Z,-1.94
2023-03-16T05:37:20.486Z,-1.83
2023-03-16T05:38:20.505Z,-1.82
2023-03-16T05:39:20.481Z,-1.87
2023-03-16T05:40:20.461Z,-1.86
2023-03-16T05:41:20.459Z,-1.82
2023-03-16T05:42:20.448Z,-1.94
2023-03-16T05:43:20.446Z,-1.86
2023-03-16T05:44:20.442Z,-1.89
2023-03-16T05:45:20.442Z,-1.89
2023-03-16T05:46:21.001Z,-1.97
2023-03-16T05:47:21.411Z,-1.89
2023-03-16T05:48:20.429Z,-2.04
2023-03-16T05:49:20.391Z,-2.02
2023-03-16T05:50:20.405Z,-1.95
2023-03-16T05:51:20.381Z,-1.89
2023-03-16T05:52:20.378Z,-1.84
2023-03-16T05:53:20.356Z,-1.86
2023-03-16T05:54:20.358Z,-1.80
2023-03-16T05:55:20.363Z,-1.80
2023-03-16T05:56:20.341Z,-1.69
2023-03-16T05:57:20.896Z,-1.72
2023-03-16T05:58:20.320Z,-1.68
2023-03-16T05:59:20.318Z,-1.62
2023-03-16T06:00:20.321Z,-1.64
2023-03-16T06:01:20.306Z,-1.68
2023-03-16T06:02:20.293Z,-1.66
2023-03-16T06:03:20.286Z,-1.68
2023-03-16T06:04:20.365Z,-1.66
2023-03-16T06:05:20.288Z,-1.48
2023-03-16T06:06:20.514Z,-1.79
2023-03-16T06:07:20.276Z,-1.66
2023-03-16T06:08:20.251Z,-1.72
2023-03-16T06:09:20.901Z,-1.66
2023-03-16T06:10:20.240Z,-1.56
2023-03-16T06:11:20.985Z,-1.48
2023-03-16T06:12:20.222Z,-1.50
2023-03-16T06:13:20.216Z,-1.37
2023-03-16T06:14:20.217Z,-1.35
2023-03-16T06:15:20.197Z,-1.29
2023-03-16T06:16:21.030Z,-1.41
2023-03-16T06:17:20.177Z,-1.20
2023-03-16T06:18:20.170Z,-1.26
2023-03-16T06:19:20.182Z,-1.20
2023-03-16T06:20:20.173Z,-1.08
2023-03-16T06:21:20.153Z,-1.04
2023-03-16T06:22:20.203Z,-0.94
2023-03-16T06:23:20.137Z,-0.91
2023-03-16T06:24:20.144Z,-1.01
2023-03-16T06:25:20.113Z,-0.82
2023-03-16T06:26:20.111Z,-0.71
2023-03-16T06:27:20.119Z,-0.70
2023-03-16T06:28:20.089Z,-0.75
2023-03-16T06:29:20.076Z,-0.70
2023-03-16T06:30:21.072Z,-0.67
2023-03-16T06:31:20.095Z,-0.52
2023-03-16T06:32:20.063Z,-0.53
2023-03-16T06:33:20.065Z,-0.44
2023-03-16T06:34:20.050Z,-0.23
2023-03-16T06:35:20.062Z,-0.21
2023-03-16T06:36:20.014Z,-0.10
2023-03-16T06:37:21.007Z,-0.13
2023-03-16T06:38:20.008Z,0.16
2023-03-16T06:39:20.011Z,0.36
2023-03-16T06:40:20.893Z,0.41
2023-03-16T06:41:20.014Z,0.44
2023-03-16T06:42:22.511Z,0.76
2023-03-16T06:43:20.001Z,0.92
2023-03-16T06:44:20.002Z,1.12
2023-03-16T06:45:19.957Z,1.30
2023-03-16T06:46:20.050Z,1.40
2023-03-16T06:47:20.907Z,1.56
2023-03-16T06:48:19.949Z,1.84
2023-03-16T06:49:19.934Z,2.15
2023-03-16T06:50:20.062Z,2.39
2023-03-16T06:51:19.994Z,2.57
2023-03-16T06:52:19.944Z,2.77
2023-03-16T06:53:19.898Z,2.71
2023-03-16T06:54:20.415Z,2.74
2023-03-16T06:55:20.007Z,2.82
2023-03-16T06:56:19.886Z,3.21
2023-03-16T06:57:19.901Z,3.48
2023-03-16T06:58:19.891Z,3.70
2023-03-16T06:59:19.883Z,3.80
2023-03-16T07:00:19.854Z,4.02
2023-03-16T07:01:19.869Z,4.12
2023-03-16T07:02:19.839Z,4.12
2023-03-16T07:03:19.830Z,4.01
2023-03-16T07:04:20.430Z,4.04
2023-03-16T07:05:20.805Z,4.22
2023-03-16T07:06:19.799Z,4.45
2023-03-16T07:07:19.794Z,4.58
2023-03-16T07:08:19.788Z,4.67
2023-03-16T07:09:19.769Z,4.80
2023-03-16T07:10:19.761Z,4.87
2023-03-16T07:11:19.757Z,4.56
2023-03-16T07:12:19.767Z,4.55
2023-03-16T07:13:19.736Z,4.35
2023-03-16T07:14:19.724Z,4.38
2023-03-16T07:15:19.716Z,4.66
2023-03-16T07:16:19.758Z,4.96
2023-03-16T07:17:19.685Z,5.10
2023-03-16T07:18:20.025Z,5.15
2023-03-16T07:19:19.706Z,5.35
2023-03-16T07:20:20.790Z,5.53
2023-03-16T07:21:20.539Z,5.71
2023-03-16T07:22:19.667Z,5.97
2023-03-16T07:23:19.645Z,5.91
2023-03-16T07:24:19.635Z,5.98
2023-03-16T07:25:19.637Z,5.90
2023-03-16T07:26:19.648Z,6.07
2023-03-16T07:27:19.622Z,6.79
2023-03-16T07:28:19.610Z,7.03
2023-03-16T07:29:19.596Z,6.67
2023-03-16T07:30:19.582Z,6.77
2023-03-16T07:31:19.649Z,7.15
2023-03-16T07:32:19.583Z,7.43
2023-03-16T07:33:19.592Z,7.63
2023-03-16T07:34:19.614Z,8.08
2023-03-16T07:35:19.565Z,8.33
2023-03-16T07:36:19.663Z,8.64
2023-03-16T07:37:25.093Z,8.71
2023-03-16T07:38:21.529Z,8.63
2023-03-16T07:39:19.527Z,8.78
2023-03-16T07:40:19.539Z,8.67
2023-03-16T07:41:19.504Z,8.67
2023-03-16T07:42:19.510Z,8.41
2023-03-16T07:43:20.015Z,8.45
2023-03-16T07:44:21.367Z,8.56
2023-03-16T07:45:19.493Z,8.38
2023-03-16T07:46:19.533Z,8.13
2023-03-16T07:47:19.504Z,8.00
2023-03-16T07:48:20.033Z,7.97
2023-03-16T07:49:20.417Z,7.95
2023-03-16T07:50:19.434Z,7.50
2023-03-16T07:51:19.500Z,7.15
2023-03-16T07:52:20.454Z,7.33
2023-03-16T07:53:19.440Z,7.00
2023-03-16T07:54:20.025Z,6.62
2023-03-16T07:55:19.436Z,6.28
2023-03-16T07:56:19.430Z,6.05
2023-03-16T07:57:19.496Z,6.26
2023-03-16T07:58:19.952Z,6.66
2023-03-16T07:59:20.977Z,7.17
2023-03-16T08:00:20.360Z,7.33
2023-03-16T08:01:19.873Z,7.18
2023-03-16T08:02:19.422Z,7.21
2023-03-16T08:03:19.392Z,7.40
2023-03-16T08:04:21.935Z,7.63
2023-03-16T08:05:19.364Z,8.09
2023-03-16T08:06:19.329Z,8.26
2023-03-16T08:07:19.314Z,8.33
2023-03-16T08:08:19.295Z,8.76
2023-03-16T08:09:19.302Z,8.89
2023-03-16T08:10:19.275Z,9.13
2023-03-16T08:11:19.279Z,9.47
2023-03-16T08:12:19.253Z,9.55
2023-03-16T08:13:19.952Z,9.48
2023-03-16T08:14:19.248Z,9.48
2023-03-16T08:15:19.235Z,9.65
2023-03-16T08:16:22.038Z,9.86
2023-03-16T08:17:20.245Z,9.99
2023-03-16T08:18:19.263Z,10.07
2023-03-16T08:19:19.266Z,10.09
2023-03-16T08:20:19.939Z,10.09
2023-03-16T08:21:19.220Z,10.20
2023-03-16T08:22:19.203Z,10.26
2023-03-16T08:23:19.977Z,10.25
2023-03-16T08:24:19.185Z,10.37
2023-03-16T08:25:19.223Z,10.49
2023-03-16T08:26:21.006Z,10.54
2023-03-16T08:27:20.024Z,10.57
2023-03-16T08:28:19.174Z,10.63
2023-03-16T08:29:19.157Z,10.61
2023-03-16T08:30:20.020Z,10.75
2023-03-16T08:31:19.185Z,10.67
2023-03-16T08:32:19.100Z,10.68
2023-03-16T08:33:21.235Z,10.67
2023-03-16T08:34:20.069Z,10.61
2023-03-16T08:35:19.084Z,10.37
2023-03-16T08:36:19.076Z,10.17
2023-03-16T08:37:19.088Z,9.77
2023-03-16T08:38:19.115Z,9.25
2023-03-16T08:39:19.953Z,8.92
2023-03-16T08:40:20.025Z,8.56
2023-03-16T08:41:20.048Z,8.28
2023-03-16T08:42:19.009Z,8.05
2023-03-16T08:43:19.000Z,7.82
2023-03-16T08:44:19.050Z,7.88
2023-03-16T08:45:19.012Z,7.82
2023-03-16T08:46:19.046Z,7.76
2023-03-16T08:47:20.639Z,7.76
2023-03-16T08:48:19.955Z,7.72
2023-03-16T08:49:18.987Z,7.67
2023-03-16T08:50:18.955Z,7.60
2023-03-16T08:52:25.830Z,7.38
2023-03-16T08:53:25.829Z,7.35
2023-03-16T08:54:25.820Z,7.31
2023-03-16T08:55:25.803Z,7.18
2023-03-16T08:56:25.792Z,7.17
2023-03-16T08:57:25.795Z,7.05
2023-03-16T08:58:25.777Z,7.05
2023-03-16T08:59:30.189Z,7.00
2023-03-16T09:00:25.798Z,6.93
2023-03-16T09:01:25.934Z,6.85
2023-03-16T09:02:25.772Z,6.82
2023-03-16T09:03:25.745Z,6.92
2023-03-16T09:04:26.673Z,6.82
2023-03-16T09:05:25.749Z,6.77
2023-03-16T09:06:26.649Z,6.72
2023-03-16T09:07:25.734Z,6.59
2023-03-16T09:08:25.712Z,6.57
2023-03-16T09:09:25.729Z,6.33
2023-03-16T09:10:25.964Z,6.45
2023-03-16T09:11:25.679Z,6.39
2023-03-16T09:12:25.691Z,6.38
2023-03-16T09:13:25.662Z,6.20
2023-03-16T09:14:26.787Z,6.14
2023-03-16T09:15:26.746Z,6.12
2023-03-16T09:16:26.772Z,6.24
2023-03-16T09:17:26.749Z,6.19
2023-03-16T09:18:27.020Z,6.41
2023-03-16T09:19:29.117Z,6.46
2023-03-16T09:20:29.716Z,6.38
2023-03-16T09:21:27.707Z,6.62
2023-03-16T09:22:26.689Z,6.57
2023-03-16T09:23:26.703Z,6.66
2023-03-16T09:24:26.677Z,6.72
2023-03-16T09:25:26.730Z,6.78
2023-03-16T09:26:26.707Z,6.96
2023-03-16T09:27:26.643Z,6.82
2023-03-16T09:28:26.656Z,6.85
2023-03-16T09:29:26.632Z,6.93
2023-03-16T09:30:26.809Z,6.82
2023-03-16T09:31:26.693Z,6.82
2023-03-16T09:32:26.650Z,6.66
2023-03-16T09:33:26.634Z,6.62
2023-03-16T09:34:26.870Z,6.69
2023-03-16T09:35:26.911Z,6.74
2023-03-16T09:36:26.570Z,6.82
2023-03-16T09:37:27.025Z,7.07
2023-03-16T09:38:26.598Z,7.15
2023-03-16T09:39:27.159Z,7.21
2023-03-16T09:40:28.260Z,7.18
2023-03-16T09:41:26.535Z,7.15
2023-03-16T09:42:27.108Z,7.25
2023-03-16T09:43:27.143Z,7.38
2023-03-16T09:44:26.524Z,7.35
2023-03-16T09:45:26.583Z,7.51
2023-03-16T09:46:26.509Z,7.51
2023-03-16T09:47:27.147Z,7.39
2023-03-16T09:48:27.263Z,7.39
2023-03-16T09:49:27.224Z,7.51
2023-03-16T09:50:28.168Z,7.57
2023-03-16T09:51:27.577Z,7.75
2023-03-16T09:52:26.456Z,7.58
2023-03-16T09:53:26.445Z,7.48
2023-03-16T09:54:26.424Z,7.28
2023-03-16T09:55:28.594Z,7.23
2023-03-16T09:56:26.442Z,7.29
2023-03-16T09:57:26.434Z,7.24
2023-03-16T09:58:26.424Z,7.35
2023-03-16T09:59:26.431Z,7.35
2023-03-16T10:00:26.456Z,7.33
2023-03-16T10:01:26.467Z,7.24
2023-03-16T10:02:27.296Z,7.38
2023-03-16T10:03:26.366Z,7.47
2023-03-16T10:04:26.366Z,7.39
2023-03-16T10:05:27.110Z,7.57
2023-03-16T10:06:26.344Z,7.40
2023-03-16T10:07:26.344Z,7.53
2023-03-16T10:08:26.322Z,7.61
2023-03-16T10:09:26.764Z,7.77
2023-03-16T10:10:26.413Z,7.82
2023-03-16T10:11:26.313Z,7.73
2023-03-16T10:12:26.286Z,7.82
2023-03-16T10:13:26.374Z,7.66
2023-03-16T10:14:26.280Z,7.75
2023-03-16T10:15:26.265Z,7.61
2023-03-16T10:16:26.296Z,7.70
2023-03-16T10:17:26.247Z,7.72
2023-03-16T10:18:26.282Z,7.70
2023-03-16T10:19:26.261Z,7.79
2023-03-16T10:20:26.695Z,7.97
2023-03-16T10:21:26.228Z,8.00
2023-03-16T10:22:26.276Z,8.09
2023-03-16T10:23:26.228Z,8.15
2023-03-16T10:24:26.190Z,7.98
2023-03-16T10:25:26.193Z,7.90
2023-03-16T10:26:26.216Z,7.87
2023-03-16T10:27:26.234Z,7.97
2023-03-16T10:28:26.177Z,7.90
2023-03-16T10:29:26.152Z,7.90
2023-03-16T10:30:26.205Z,7.97
2023-03-16T10:31:26.211Z,8.03
2023-03-16T10:32:28.156Z,8.09
2023-03-16T10:33:26.199Z,8.13
2023-03-16T10:34:26.146Z,8.23
2023-03-16T10:35:26.234Z,8.28
2023-03-16T10:36:26.161Z,8.31
2023-03-16T10:37:26.665Z,8.23
2023-03-16T10:38:26.103Z,8.18
2023-03-16T10:39:28.616Z,8.23
2023-03-16T10:40:26.114Z,8.16
2023-03-16T10:41:26.051Z,8.15
2023-03-16T10:42:26.094Z,8.18
2023-03-16T10:43:26.667Z,8.18
2023-03-16T10:44:26.040Z,8.19
2023-03-16T10:45:26.037Z,8.06
2023-03-16T10:46:26.516Z,8.03
2023-03-16T10:47:26.109Z,8.10
2023-03-16T10:48:26.021Z,8.13
2023-03-16T10:49:26.032Z,8.20
2023-03-16T10:50:26.010Z,8.28
2023-03-16T10:51:25.993Z,8.44
2023-03-16T10:52:25.984Z,8.55
2023-03-16T10:53:25.963Z,8.49
2023-03-16T10:54:26.809Z,8.56
2023-03-16T10:55:25.955Z,8.70
2023-03-16T10:56:25.954Z,8.79
2023-03-16T10:57:26.765Z,8.91
2023-03-16T10:58:27.930Z,9.10
2023-03-16T10:59:25.936Z,9.02
2023-03-16T11:00:25.934Z,8.97
2023-03-16T11:01:25.957Z,8.88
2023-03-16T11:02:26.767Z,8.87
2023-03-16T11:03:25.910Z,8.82
2023-03-16T11:04:27.842Z,8.82
2023-03-16T11:05:25.906Z,8.71
2023-03-16T11:06:25.918Z,8.52
2023-03-16T11:07:25.844Z,8.45
2023-03-16T11:08:26.695Z,8.56
2023-03-16T11:09:26.859Z,8.37
2023-03-16T11:10:25.828Z,8.48
2023-03-16T11:11:25.908Z,8.74
2023-03-16T11:12:25.840Z,8.70
2023-03-16T11:13:25.817Z,8.67
2023-03-16T11:14:26.823Z,8.61
2023-03-16T11:15:26.741Z,8.78
2023-03-16T11:16:27.034Z,8.78
2023-03-16T11:17:26.735Z,8.67
2023-03-16T11:18:25.784Z,8.69
2023-03-16T11:19:26.267Z,8.71
2023-03-16T11:20:25.761Z,8.74
2023-03-16T11:21:26.766Z,8.63
2023-03-16T11:22:25.759Z,8.81
2023-03-16T11:23:25.741Z,8.78
2023-03-16T11:24:25.824Z,8.79
2023-03-16T11:25:25.729Z,8.71
2023-03-16T11:26:25.700Z,8.74
2023-03-16T11:27:25.714Z,8.70
2023-03-16T11:28:25.703Z,8.69
2023-03-16T11:29:25.688Z,8.76
2023-03-16T11:30:25.699Z,8.70
2023-03-16T11:31:25.795Z,8.76
2023-03-16T11:32:25.739Z,8.82
2023-03-16T11:33:25.650Z,8.81
2023-03-16T11:34:25.641Z,8.76
2023-03-16T11:35:26.302Z,8.79
2023-03-16T11:36:25.688Z,8.79
2023-03-16T11:37:25.644Z,8.79
2023-03-16T11:38:25.621Z,8.79
2023-03-16T11:39:25.657Z,8.99
2023-03-16T11:40:25.602Z,9.03
2023-03-16T11:41:25.594Z,9.16
2023-03-16T11:42:25.585Z,9.29
2023-03-16T11:43:26.202Z,9.39
2023-03-16T11:44:25.559Z,9.40
2023-03-16T11:45:25.542Z,9.40
2023-03-16T11:46:25.567Z,9.41
2023-03-16T11:47:25.543Z,9.32
2023-03-16T11:48:25.532Z,9.19
2023-03-16T11:49:26.299Z,9.14
2023-03-16T11:50:25.535Z,9.19
2023-03-16T11:51:25.829Z,9.28
2023-03-16T11:52:25.861Z,9.37
2023-03-16T11:53:25.495Z,9.31
2023-03-16T11:54:25.489Z,9.34
2023-03-16T11:55:25.476Z,9.29
2023-03-16T11:56:25.559Z,9.22
2023-03-16T11:57:26.201Z,9.18
2023-03-16T11:58:25.500Z,9.19
2023-03-16T11:59:25.490Z,9.06
2023-03-16T12:00:26.912Z,9.06
2023-03-16T12:01:25.489Z,9.03
2023-03-16T12:02:25.567Z,8.95
2023-03-16T12:03:25.483Z,9.04
2023-03-16T12:04:25.442Z,9.10
2023-03-16T12:05:25.403Z,9.23
2023-03-16T12:06:26.207Z,9.23
2023-03-16T12:07:25.408Z,9.21
2023-03-16T12:08:25.397Z,9.28
2023-03-16T12:09:25.363Z,9.36
2023-03-16T12:10:25.369Z,9.36
2023-03-16T12:11:25.347Z,9.40
2023-03-16T12:12:26.363Z,9.44
2023-03-16T12:13:25.360Z,9.54
2023-03-16T12:14:25.335Z,9.51
2023-03-16T12:15:25.318Z,9.64
2023-03-16T12:16:27.448Z,9.76
2023-03-16T12:17:25.297Z,9.83
2023-03-16T12:18:25.287Z,9.92
2023-03-16T12:19:26.307Z,9.87
2023-03-16T12:20:25.282Z,10.07
2023-03-16T12:21:25.788Z,10.07
2023-03-16T12:22:26.137Z,10.17
2023-03-16T12:23:27.286Z,10.28
2023-03-16T12:24:25.259Z,10.34
2023-03-16T12:25:25.275Z,10.33
2023-03-16T12:26:25.220Z,10.33
2023-03-16T12:27:25.254Z,10.25
2023-03-16T12:28:25.213Z,9.95
2023-03-16T12:29:25.239Z,9.68
2023-03-16T12:30:25.238Z,9.94
2023-03-16T12:31:25.229Z,10.09
2023-03-16T12:32:25.222Z,10.20
2023-03-16T12:33:25.272Z,10.19
2023-03-16T12:34:25.809Z,10.33
2023-03-16T12:35:25.288Z,9.92
2023-03-16T12:36:25.185Z,9.62
2023-03-16T12:37:25.139Z,9.58
2023-03-16T12:38:25.130Z,9.65
2023-03-16T12:39:25.132Z,9.82
2023-03-16T12:40:25.112Z,9.97
2023-03-16T12:41:25.107Z,10.12
2023-03-16T12:42:25.130Z,10.12
2023-03-16T12:43:25.137Z,10.10
2023-03-16T12:44:25.653Z,10.23
2023-03-16T12:45:25.082Z,10.38
2023-03-16T12:46:25.154Z,10.33
2023-03-16T12:47:25.046Z,10.31
2023-03-16T12:48:25.073Z,10.20
2023-03-16T12:49:25.051Z,10.28
2023-03-16T12:50:25.040Z,10.40
2023-03-16T12:51:25.055Z,10.37
2023-03-16T12:52:25.053Z,10.31
2023-03-16T12:53:25.023Z,10.19
2023-03-16T12:54:25.003Z,10.10
2023-03-16T12:55:25.019Z,10.25
2023-03-16T12:56:25.001Z,10.23
2023-03-16T12:57:25.812Z,10.34
2023-03-16T12:58:24.996Z,10.20
2023-03-16T12:59:25.646Z,10.26
2023-03-16T13:00:24.965Z,10.09
2023-03-16T13:01:25.012Z,10.02
2023-03-16T13:02:24.965Z,10.02
2023-03-16T13:03:24.983Z,10.02
2023-03-16T13:04:24.950Z,9.98
2023-03-16T13:05:24.955Z,10.01
2023-03-16T13:06:25.917Z,10.20